createdAt,value
2018-05-27T00:01:16.933Z,23.23
2018-05-27T00:03:44.326Z,23.20
2018-05-27T00:06:11.753Z,23.19
2018-05-27T00:08:39.144Z,23.23
2018-05-27T00:11:06.909Z,23.23
2018-05-27T00:13:34.309Z,23.26
2018-05-27T00:16:01.691Z,23.26
2018-05-27T00:18:29.093Z,23.22
2018-05-27T00:20:56.485Z,23.20
2018-05-27T00:23:23.886Z,23.16
2018-05-27T00:25:51.277Z,23.14
2018-05-27T00:28:18.681Z,23.15
2018-05-27T00:30:46.081Z,23.15
2018-05-27T00:33:13.473Z,23.11
2018-05-27T00:35:40.865Z,23.06
2018-05-27T00:38:08.254Z,23.05
2018-05-27T00:40:35.652Z,23.01
2018-05-27T00:43:03.038Z,22.95
2018-05-27T00:45:30.489Z,22.94
2018-05-27T00:47:57.897Z,22.93
2018-05-27T00:50:25.282Z,22.96
2018-05-27T00:52:52.700Z,22.99
2018-05-27T00:55:20.085Z,23.01
2018-05-27T00:57:47.465Z,23.01
2018-05-27T01:00:14.874Z,22.99
2018-05-27T01:02:42.285Z,22.97
2018-05-27T01:05:09.696Z,22.88
2018-05-27T01:07:37.079Z,22.79
2018-05-27T01:10:04.471Z,22.76
2018-05-27T01:12:31.874Z,22.76
2018-05-27T01:14:59.283Z,22.71
2018-05-27T01:17:26.680Z,22.65
2018-05-27T01:19:54.077Z,22.66
2018-05-27T01:22:21.485Z,22.70
2018-05-27T01:24:48.882Z,22.74
2018-05-27T01:27:16.272Z,22.68
2018-05-27T01:29:43.685Z,22.59
2018-05-27T01:32:11.082Z,22.53
2018-05-27T01:34:38.461Z,22.49
2018-05-27T01:37:05.873Z,22.54
2018-05-27T01:39:33.267Z,22.59
2018-05-27T01:42:00.660Z,22.59
2018-05-27T01:44:28.385Z,22.57
2018-05-27T01:46:55.776Z,22.52
2018-05-27T01:49:23.169Z,22.39
2018-05-27T01:51:50.569Z,22.26
2018-05-27T01:54:17.968Z,22.18
2018-05-27T01:56:45.350Z,22.16
2018-05-27T01:59:12.747Z,22.15
2018-05-27T02:01:40.185Z,22.13
2018-05-27T02:04:07.569Z,22.10
2018-05-27T02:06:34.973Z,22.08
2018-05-27T02:09:02.370Z,22.08
2018-05-27T02:11:29.765Z,22.08
2018-05-27T02:13:57.165Z,22.09
2018-05-27T02:16:24.598Z,22.08
2018-05-27T02:18:51.993Z,22.06
2018-05-27T02:21:19.382Z,22.10
2018-05-27T02:23:46.784Z,22.15
2018-05-27T02:26:14.173Z,22.16
2018-05-27T02:28:41.561Z,22.14
2018-05-27T02:31:08.957Z,22.10
2018-05-27T02:33:36.342Z,22.09
2018-05-27T02:36:03.737Z,22.04
2018-05-27T02:38:31.128Z,22.03
2018-05-27T02:40:58.509Z,21.98
2018-05-27T02:43:25.915Z,21.93
2018-05-27T02:45:53.297Z,21.88
2018-05-27T02:48:20.691Z,21.89
2018-05-27T02:50:48.085Z,21.95
2018-05-27T02:53:15.481Z,22.01
2018-05-27T02:55:42.869Z,22.03
2018-05-27T02:58:10.249Z,22.04
2018-05-27T03:00:37.977Z,22.03
2018-05-27T03:03:05.366Z,22.03
2018-05-27T03:05:32.756Z,22.04
2018-05-27T03:08:00.148Z,22.03
2018-05-27T03:10:27.529Z,21.99
2018-05-27T03:12:54.949Z,21.99
2018-05-27T03:15:22.334Z,21.98
2018-05-27T03:17:49.721Z,21.97
2018-05-27T03:20:17.117Z,21.96
2018-05-27T03:22:44.518Z,21.96
2018-05-27T03:25:11.930Z,21.93
2018-05-27T03:27:39.320Z,21.92
2018-05-27T03:30:06.981Z,21.92
2018-05-27T03:32:34.373Z,21.90
2018-05-27T03:35:01.774Z,21.91
2018-05-27T03:37:29.178Z,21.87
2018-05-27T03:39:56.565Z,21.83
2018-05-27T03:42:23.976Z,21.78
2018-05-27T03:44:51.372Z,21.74
2018-05-27T03:47:18.789Z,21.74
2018-05-27T03:49:46.177Z,21.72
2018-05-27T03:52:13.577Z,21.74
2018-05-27T03:54:40.978Z,21.76
2018-05-27T03:57:08.369Z,21.79
2018-05-27T03:59:35.769Z,21.85
2018-05-27T04:02:03.164Z,21.89
2018-05-27T04:07:44.002Z,21.90
2018-05-27T04:10:11.405Z,21.88
2018-05-27T04:12:38.796Z,21.91
2018-05-27T04:15:06.188Z,21.96
2018-05-27T04:17:33.602Z,21.98
2018-05-27T04:20:01.000Z,21.97
2018-05-27T04:22:28.399Z,21.98
2018-05-27T04:24:55.793Z,21.98
2018-05-27T04:27:23.189Z,21.96
2018-05-27T04:29:50.599Z,21.94
2018-05-27T04:32:17.973Z,21.89
2018-05-27T04:34:45.373Z,21.85
2018-05-27T04:37:12.767Z,21.82
2018-05-27T04:39:40.161Z,21.82
2018-05-27T04:42:07.570Z,21.81
2018-05-27T04:44:34.961Z,21.81
2018-05-27T04:47:02.372Z,21.75
2018-05-27T04:49:29.760Z,21.75
2018-05-27T04:51:57.154Z,21.75
2018-05-27T04:54:24.557Z,21.74
2018-05-27T04:56:51.945Z,21.77
2018-05-27T04:59:19.357Z,21.83
2018-05-27T05:01:46.752Z,21.87
2018-05-27T05:04:14.164Z,21.90
2018-05-27T05:06:41.551Z,21.92
2018-05-27T05:09:08.945Z,21.96
2018-05-27T05:11:36.351Z,21.98
2018-05-27T05:14:03.749Z,22.00
2018-05-27T05:16:31.148Z,22.03
2018-05-27T05:18:58.539Z,22.09
2018-05-27T05:21:25.949Z,22.15
2018-05-27T05:23:53.333Z,22.20
2018-05-27T05:26:20.729Z,22.26
2018-05-27T05:28:48.125Z,22.31
2018-05-27T05:31:16.313Z,22.37
2018-05-27T05:33:43.720Z,22.42
2018-05-27T05:36:11.113Z,22.46
2018-05-27T05:38:38.624Z,22.49
2018-05-27T05:41:05.980Z,22.49
2018-05-27T05:43:33.413Z,22.49
2018-05-27T05:46:00.793Z,22.48
2018-05-27T05:48:28.181Z,22.51
2018-05-27T05:50:55.581Z,22.55
2018-05-27T05:53:22.969Z,22.59
2018-05-27T05:55:50.365Z,22.61
2018-05-27T05:58:18.929Z,22.65
2018-05-27T06:00:46.961Z,22.68
2018-05-27T06:03:14.371Z,22.71
2018-05-27T06:05:41.761Z,22.74
2018-05-27T06:08:09.162Z,22.77
2018-05-27T06:10:36.632Z,22.80
2018-05-27T06:13:04.033Z,22.85
2018-05-27T06:15:31.421Z,22.92
2018-05-27T06:17:58.836Z,23.00
2018-05-27T06:20:26.234Z,23.10
2018-05-27T06:22:53.621Z,23.17
2018-05-27T06:25:21.020Z,23.24
2018-05-27T06:27:48.416Z,23.30
2018-05-27T06:30:15.813Z,23.36
2018-05-27T06:32:43.269Z,23.42
2018-05-27T06:35:10.669Z,23.45
2018-05-27T06:37:38.073Z,23.50
2018-05-27T06:40:05.461Z,23.55
2018-05-27T06:42:32.857Z,23.59
2018-05-27T06:45:00.243Z,23.62
2018-05-27T06:47:27.645Z,23.64
2018-05-27T06:49:55.024Z,23.69
2018-05-27T06:52:22.413Z,23.72
2018-05-27T06:54:49.809Z,23.73
2018-05-27T06:57:17.192Z,23.75
2018-05-27T06:59:44.590Z,23.80
2018-05-27T07:02:11.980Z,23.81
2018-05-27T07:04:39.400Z,23.84
2018-05-27T07:07:06.760Z,23.89
2018-05-27T07:09:34.150Z,23.93
2018-05-27T07:12:01.541Z,23.99
2018-05-27T07:14:28.960Z,24.04
2018-05-27T07:16:56.330Z,24.06
2018-05-27T07:19:23.728Z,24.09
2018-05-27T07:21:51.154Z,24.10
2018-05-27T07:24:18.547Z,24.11
2018-05-27T07:26:45.940Z,24.09
2018-05-27T07:29:13.323Z,24.10
2018-05-27T07:31:40.716Z,24.09
2018-05-27T07:34:08.117Z,24.07
2018-05-27T07:36:35.526Z,24.03
2018-05-27T07:39:02.916Z,24.01
2018-05-27T07:41:30.305Z,24.00
2018-05-27T07:43:57.693Z,24.01
2018-05-27T07:46:25.083Z,24.01
2018-05-27T07:48:52.481Z,24.05
2018-05-27T07:51:19.883Z,24.09
2018-05-27T07:53:47.285Z,24.15
2018-05-27T07:56:14.678Z,24.19
2018-05-27T07:58:42.065Z,24.20
2018-05-27T08:01:09.469Z,24.24
2018-05-27T08:03:36.868Z,24.27
2018-05-27T08:06:04.257Z,24.30
2018-05-27T08:08:31.653Z,24.36
2018-05-27T08:10:59.066Z,24.40
2018-05-27T08:13:26.492Z,24.44
2018-05-27T08:15:53.909Z,24.49
2018-05-27T08:18:21.296Z,24.53
2018-05-27T08:20:48.701Z,24.58
2018-05-27T08:23:16.089Z,24.62
2018-05-27T08:25:43.483Z,24.67
2018-05-27T08:28:10.876Z,24.70
2018-05-27T08:30:38.278Z,24.74
2018-05-27T08:33:05.668Z,24.78
2018-05-27T08:35:33.080Z,24.83
2018-05-27T08:38:00.469Z,24.88
2018-05-27T08:40:27.854Z,24.93
2018-05-27T08:42:55.278Z,25.00
2018-05-27T08:45:22.688Z,25.06
2018-05-27T08:47:50.081Z,25.12
2018-05-27T08:50:17.464Z,25.15
2018-05-27T08:52:44.872Z,25.17
2018-05-27T08:55:12.257Z,25.18
2018-05-27T08:57:39.650Z,25.19
2018-05-27T09:00:07.041Z,25.22
2018-05-27T09:02:34.428Z,25.25
2018-05-27T09:05:01.841Z,25.29
2018-05-27T09:07:29.232Z,25.32
2018-05-27T09:09:56.625Z,25.34
2018-05-27T09:12:24.018Z,25.37
2018-05-27T09:14:51.413Z,25.41
2018-05-27T09:17:18.798Z,25.42
2018-05-27T09:19:46.201Z,25.43
2018-05-27T09:22:13.585Z,25.44
2018-05-27T09:24:40.980Z,25.46
2018-05-27T09:27:08.365Z,25.48
2018-05-27T09:29:35.774Z,25.52
2018-05-27T09:32:03.165Z,25.55
2018-05-27T09:34:30.550Z,25.58
2018-05-27T09:36:57.945Z,25.60
2018-05-27T09:39:25.341Z,25.62
2018-05-27T09:41:52.729Z,25.67
2018-05-27T09:44:20.150Z,25.72
2018-05-27T09:46:47.524Z,25.74
2018-05-27T09:49:14.912Z,25.76
2018-05-27T09:51:42.305Z,25.80
2018-05-27T09:54:09.693Z,25.83
2018-05-27T09:56:37.103Z,25.87
2018-05-27T09:59:04.495Z,25.91
2018-05-27T10:01:31.909Z,25.94
2018-05-27T10:03:59.311Z,26.01
2018-05-27T10:06:26.712Z,26.05
2018-05-27T10:08:54.096Z,26.07
2018-05-27T10:11:21.498Z,26.08
2018-05-27T10:13:48.977Z,26.13
2018-05-27T10:16:16.362Z,26.16
2018-05-27T10:18:43.762Z,26.25
2018-05-27T10:21:11.158Z,26.36
2018-05-27T10:23:38.593Z,26.51
2018-05-27T10:26:06.030Z,26.68
2018-05-27T10:28:33.637Z,26.88
2018-05-27T10:31:01.026Z,27.06
2018-05-27T10:33:28.424Z,27.19
2018-05-27T10:35:55.813Z,27.27
2018-05-27T10:38:23.200Z,27.26
2018-05-27T10:40:50.597Z,27.19
2018-05-27T10:43:17.985Z,27.14
2018-05-27T10:45:45.642Z,27.12
2018-05-27T10:48:13.045Z,27.07
2018-05-27T10:50:40.458Z,27.04
2018-05-27T10:53:07.857Z,27.01
2018-05-27T10:55:35.261Z,26.99
2018-05-27T10:58:02.653Z,26.96
2018-05-27T11:00:30.039Z,26.96
2018-05-27T11:02:57.437Z,26.97
2018-05-27T11:05:24.825Z,26.96
2018-05-27T11:07:52.245Z,26.91
2018-05-27T11:10:19.637Z,26.82
2018-05-27T11:12:47.030Z,26.74
2018-05-27T11:15:14.445Z,26.67
2018-05-27T11:17:41.844Z,26.61
2018-05-27T11:20:09.261Z,26.55
2018-05-27T11:22:36.657Z,26.52
2018-05-27T11:25:04.057Z,26.48
2018-05-27T11:27:31.441Z,26.48
2018-05-27T11:29:59.077Z,26.49
2018-05-27T11:32:26.468Z,26.48
2018-05-27T11:34:53.860Z,26.44
2018-05-27T11:37:21.264Z,26.40
2018-05-27T11:39:48.725Z,26.34
2018-05-27T11:42:16.129Z,26.28
2018-05-27T11:44:43.529Z,26.24
2018-05-27T11:47:10.909Z,26.20
2018-05-27T11:49:38.323Z,26.15
2018-05-27T11:52:05.712Z,26.12
2018-05-27T11:54:33.109Z,26.08
2018-05-27T11:57:00.504Z,26.04
2018-05-27T11:59:27.951Z,26.01
2018-05-27T12:01:55.353Z,25.98
2018-05-27T12:04:22.745Z,25.96
2018-05-27T12:06:50.149Z,25.92
2018-05-27T12:09:17.608Z,25.89
2018-05-27T12:11:44.979Z,25.87
2018-05-27T12:14:12.329Z,25.84
2018-05-27T12:16:39.727Z,25.82
2018-05-27T12:19:07.108Z,25.78
2018-05-27T12:21:34.505Z,25.74
2018-05-27T12:24:01.915Z,25.70
2018-05-27T12:26:29.339Z,25.65
2018-05-27T12:28:56.698Z,25.57
2018-05-27T12:31:24.073Z,25.52
2018-05-27T12:33:51.469Z,25.45
2018-05-27T12:36:18.864Z,25.32
2018-05-27T12:38:46.281Z,25.25
2018-05-27T12:41:13.677Z,25.19
2018-05-27T12:43:41.077Z,25.14
2018-05-27T12:46:08.469Z,25.09
2018-05-27T12:48:35.865Z,25.04
2018-05-27T12:51:03.271Z,24.99
2018-05-27T12:53:30.661Z,24.94
2018-05-27T12:55:58.053Z,24.91
2018-05-27T12:58:25.477Z,24.90
2018-05-27T13:00:52.872Z,24.86
2018-05-27T13:03:20.308Z,24.85
2018-05-27T13:05:47.710Z,24.85
2018-05-27T13:08:15.098Z,24.85
2018-05-27T13:10:42.505Z,24.86
2018-05-27T13:13:09.896Z,24.84
2018-05-27T13:15:37.289Z,24.83
2018-05-27T13:18:04.688Z,24.83
2018-05-27T13:20:32.089Z,24.82
2018-05-27T13:22:59.488Z,24.83
2018-05-27T13:25:26.897Z,24.85
2018-05-27T13:27:54.313Z,24.85
2018-05-27T13:30:21.931Z,24.85
2018-05-27T13:32:49.517Z,24.87
2018-05-27T13:35:17.023Z,24.88
2018-05-27T13:37:45.408Z,24.91
2018-05-27T13:40:12.974Z,24.93
2018-05-27T13:42:40.798Z,24.97
2018-05-27T13:45:08.475Z,25.04
2018-05-27T13:47:36.037Z,25.14
2018-05-27T13:50:03.625Z,25.25
2018-05-27T13:52:31.129Z,25.38
2018-05-27T13:54:58.720Z,25.52
2018-05-27T13:57:26.188Z,25.70
2018-05-27T13:59:53.817Z,25.87
2018-05-27T14:02:21.375Z,26.00
2018-05-27T14:04:49.031Z,26.13
2018-05-27T14:07:16.435Z,26.24
2018-05-27T14:09:43.829Z,26.40
2018-05-27T14:12:11.229Z,26.58
2018-05-27T14:14:38.810Z,26.79
2018-05-27T14:17:06.251Z,27.02
2018-05-27T14:19:33.577Z,27.21
2018-05-27T14:22:01.014Z,27.40
2018-05-27T14:24:28.417Z,27.62
2018-05-27T14:26:55.834Z,27.79
2018-05-27T14:29:23.226Z,27.92
2018-05-27T14:31:50.608Z,28.04
2018-05-27T14:34:18.017Z,28.20
2018-05-27T14:36:45.408Z,28.37
2018-05-27T14:39:12.798Z,28.50
2018-05-27T14:41:40.189Z,28.60
2018-05-27T14:44:07.589Z,28.58
2018-05-27T14:46:34.965Z,28.51
2018-05-27T14:49:02.365Z,28.41
2018-05-27T14:51:29.822Z,28.30
2018-05-27T14:53:57.224Z,28.19
2018-05-27T14:56:24.619Z,28.07
2018-05-27T14:58:52.045Z,27.94
2018-05-27T15:01:19.451Z,27.79
2018-05-27T15:03:46.833Z,27.66
2018-05-27T15:06:14.241Z,27.57
2018-05-27T15:08:41.625Z,27.53
2018-05-27T15:11:09.032Z,27.50
2018-05-27T15:13:36.417Z,27.45
2018-05-27T15:16:03.805Z,27.41
2018-05-27T15:18:31.315Z,27.37
2018-05-27T15:20:58.598Z,27.31
2018-05-27T15:23:26.111Z,27.21
2018-05-27T15:25:53.488Z,27.11
2018-05-27T15:28:20.893Z,27.06
2018-05-27T15:30:48.380Z,27.04
2018-05-27T15:33:15.770Z,27.04
2018-05-27T15:35:43.166Z,27.01
2018-05-27T15:38:10.560Z,26.96
2018-05-27T15:40:37.959Z,26.86
2018-05-27T15:43:05.341Z,26.77
2018-05-27T15:45:32.762Z,26.68
2018-05-27T15:48:00.160Z,26.57
2018-05-27T15:50:27.545Z,26.49
2018-05-27T15:52:54.957Z,26.45
2018-05-27T15:55:22.355Z,26.41
2018-05-27T15:57:49.779Z,26.38
2018-05-27T16:00:17.159Z,26.33
2018-05-27T16:02:44.582Z,26.31
2018-05-27T16:05:11.966Z,26.29
2018-05-27T16:07:39.407Z,26.25
2018-05-27T16:10:06.797Z,26.24
2018-05-27T16:12:34.185Z,26.21
2018-05-27T16:15:01.589Z,26.17
2018-05-27T16:17:28.973Z,26.14
2018-05-27T16:19:56.366Z,26.11
2018-05-27T16:22:23.768Z,26.07
2018-05-27T16:24:51.153Z,26.04
2018-05-27T16:27:18.567Z,26.02
2018-05-27T16:29:45.965Z,25.98
2018-05-27T16:32:13.620Z,25.95
2018-05-27T16:34:41.025Z,25.91
2018-05-27T16:37:08.409Z,25.89
2018-05-27T16:39:35.843Z,25.86
2018-05-27T16:42:03.286Z,25.85
2018-05-27T16:44:30.669Z,25.83
2018-05-27T16:46:58.062Z,25.79
2018-05-27T16:49:25.486Z,25.79
2018-05-27T16:51:52.869Z,25.77
2018-05-27T16:54:20.253Z,25.78
2018-05-27T16:56:47.657Z,25.76
2018-05-27T16:59:15.061Z,25.74
2018-05-27T17:01:42.452Z,25.72
2018-05-27T17:04:09.849Z,25.68
2018-05-27T17:06:37.253Z,25.68
2018-05-27T17:09:05.436Z,25.66
2018-05-27T17:11:32.817Z,25.65
2018-05-27T17:14:00.221Z,25.62
2018-05-27T17:16:27.609Z,25.60
2018-05-27T17:18:55.005Z,25.57
2018-05-27T17:21:22.397Z,25.56
2018-05-27T17:23:49.792Z,25.53
2018-05-27T17:26:17.189Z,25.51
2018-05-27T17:28:44.581Z,25.47
2018-05-27T17:31:11.991Z,25.41
2018-05-27T17:33:39.457Z,25.37
2018-05-27T17:36:06.859Z,25.32
2018-05-27T17:38:34.275Z,25.26
2018-05-27T17:41:01.808Z,25.18
2018-05-27T17:43:29.217Z,25.11
2018-05-27T17:45:56.605Z,25.05
2018-05-27T17:48:24.013Z,24.98
2018-05-27T17:50:51.418Z,24.93
2018-05-27T17:53:18.825Z,24.89
2018-05-27T17:55:46.220Z,24.87
2018-05-27T17:58:13.670Z,24.84
2018-05-27T18:00:41.077Z,24.81
2018-05-27T18:03:08.475Z,24.76
2018-05-27T18:05:35.901Z,24.73
2018-05-27T18:08:03.308Z,24.68
2018-05-27T18:10:30.715Z,24.66
2018-05-27T18:12:58.121Z,24.63
2018-05-27T18:15:25.533Z,24.61
2018-05-27T18:17:52.921Z,24.59
2018-05-27T18:20:20.317Z,24.57
2018-05-27T18:22:47.728Z,24.55
2018-05-27T18:25:15.129Z,24.52
2018-05-27T18:27:42.537Z,24.51
2018-05-27T18:30:09.949Z,24.49
2018-05-27T18:32:37.361Z,24.47
2018-05-27T18:35:04.763Z,24.47
2018-05-27T18:37:32.140Z,24.46
2018-05-27T18:39:59.544Z,24.44
2018-05-27T18:42:26.925Z,24.43
2018-05-27T18:44:54.329Z,24.42
2018-05-27T18:47:21.713Z,24.42
2018-05-27T18:49:49.133Z,24.43
2018-05-27T18:52:16.525Z,24.43
2018-05-27T18:54:43.970Z,24.43
2018-05-27T18:57:11.369Z,24.43
2018-05-27T18:59:38.764Z,24.44
2018-05-27T19:02:06.161Z,24.46
2018-05-27T19:04:33.545Z,24.45
2018-05-27T19:07:00.949Z,24.44
2018-05-27T19:09:28.397Z,24.43
2018-05-27T19:11:55.789Z,24.41
2018-05-27T19:14:23.189Z,24.38
2018-05-27T19:16:50.586Z,24.33
2018-05-27T19:19:17.982Z,24.26
2018-05-27T19:21:45.369Z,24.22
2018-05-27T19:24:12.756Z,24.16
2018-05-27T19:26:40.328Z,24.07
2018-05-27T19:29:08.320Z,24.01
2018-05-27T19:31:36.756Z,23.96
2018-05-27T19:34:04.237Z,23.89
2018-05-27T19:36:31.810Z,23.84
2018-05-27T19:38:59.430Z,23.81
2018-05-27T19:41:27.878Z,23.78
2018-05-27T19:43:55.436Z,23.76
2018-05-27T19:46:22.934Z,23.74
2018-05-27T19:48:50.482Z,23.75
2018-05-27T19:51:18.092Z,23.74
2018-05-27T19:53:45.886Z,23.68
2018-05-27T19:56:13.417Z,23.61
2018-05-27T19:58:40.919Z,23.56
2018-05-27T20:01:08.908Z,23.52
2018-05-27T20:03:36.439Z,23.47
2018-05-27T20:06:03.987Z,23.45
2018-05-27T20:08:31.634Z,23.44
2018-05-27T20:10:59.061Z,23.42
2018-05-27T20:13:26.454Z,23.39
2018-05-27T20:15:53.848Z,23.35
2018-05-27T20:18:21.248Z,23.33
2018-05-27T20:20:49.324Z,23.29
2018-05-27T20:23:16.701Z,23.25
2018-05-27T20:25:44.094Z,23.24
2018-05-27T20:28:11.493Z,23.22
2018-05-27T20:30:38.880Z,23.19
2018-05-27T20:33:06.281Z,23.16
2018-05-27T20:35:33.677Z,23.15
2018-05-27T20:38:01.069Z,23.17
2018-05-27T20:40:28.473Z,23.18
2018-05-27T20:42:55.863Z,23.18
2018-05-27T20:45:23.285Z,23.17
2018-05-27T20:47:50.675Z,23.17
2018-05-27T20:50:18.065Z,23.14
2018-05-27T20:52:45.462Z,23.13
2018-05-27T20:55:12.859Z,23.11
2018-05-27T20:57:40.252Z,23.08
2018-05-27T21:00:07.637Z,23.06
2018-05-27T21:02:35.342Z,23.03
2018-05-27T21:05:02.721Z,23.01
2018-05-27T21:07:30.113Z,22.98
2018-05-27T21:09:57.510Z,22.96
2018-05-27T21:12:24.901Z,22.93
2018-05-27T21:14:52.297Z,22.89
2018-05-27T21:17:19.685Z,22.86
2018-05-27T21:19:47.089Z,22.84
2018-05-27T21:22:14.485Z,22.83
2018-05-27T21:24:41.869Z,22.83
2018-05-27T21:27:09.271Z,22.84
2018-05-27T21:29:36.663Z,22.87
2018-05-27T21:32:04.074Z,22.88
2018-05-27T21:34:31.459Z,22.86
2018-05-27T21:36:59.110Z,22.85
2018-05-27T21:39:26.513Z,22.86
2018-05-27T21:41:53.917Z,22.87
2018-05-27T21:44:21.317Z,22.85
2018-05-27T21:46:48.701Z,22.84
2018-05-27T21:49:16.101Z,22.81
2018-05-27T21:51:43.489Z,22.77
2018-05-27T21:54:10.885Z,22.75
2018-05-27T21:56:38.277Z,22.73
2018-05-27T21:59:05.691Z,22.70
2018-05-27T22:01:33.081Z,22.64
2018-05-27T22:04:00.469Z,22.59
2018-05-27T22:06:27.873Z,22.56
2018-05-27T22:08:55.263Z,22.51
2018-05-27T22:11:22.657Z,22.50
2018-05-27T22:13:50.041Z,22.46
2018-05-27T22:16:17.805Z,22.42
2018-05-27T22:18:45.189Z,22.39
2018-05-27T22:21:12.581Z,22.35
2018-05-27T22:23:39.981Z,22.34
2018-05-27T22:26:07.397Z,22.32
2018-05-27T22:28:34.793Z,22.30
2018-05-27T22:31:02.184Z,22.25
2018-05-27T22:33:29.601Z,22.24
2018-05-27T22:35:57.001Z,22.23
2018-05-27T22:38:24.401Z,22.24
2018-05-27T22:40:51.808Z,22.27
2018-05-27T22:43:19.208Z,22.27
2018-05-27T22:45:46.601Z,22.30
2018-05-27T22:48:13.989Z,22.29
2018-05-27T22:50:41.377Z,22.28
2018-05-27T22:53:09.130Z,22.28
2018-05-27T22:55:36.517Z,22.28
2018-05-27T22:58:03.908Z,22.27
2018-05-27T23:00:31.309Z,22.26
2018-05-27T23:02:58.700Z,22.26
2018-05-27T23:05:26.101Z,22.25
2018-05-27T23:07:53.496Z,22.26
2018-05-27T23:10:21.213Z,22.27
2018-05-27T23:12:48.605Z,22.26
2018-05-27T23:15:15.994Z,22.23
2018-05-27T23:17:43.401Z,22.22
2018-05-27T23:20:10.802Z,22.20
2018-05-27T23:22:38.217Z,22.19
2018-05-27T23:25:05.605Z,22.17
2018-05-27T23:27:33.017Z,22.16
2018-05-27T23:30:00.433Z,22.14
2018-05-27T23:32:27.832Z,22.11
2018-05-27T23:34:55.241Z,22.09
2018-05-27T23:37:22.626Z,22.06
2018-05-27T23:39:50.030Z,22.06
2018-05-27T23:42:17.417Z,22.04
2018-05-27T23:44:44.816Z,22.02
2018-05-27T23:47:12.226Z,22.01
2018-05-27T23:49:39.613Z,22.02
2018-05-27T23:52:07.005Z,22.00
2018-05-27T23:54:34.393Z,21.99
2018-05-27T23:57:01.782Z,22.00
2018-05-27T23:59:29.173Z,21.98
